sensor_id;sensor_type;location;lat;lon;timestamp;temperature;humidity
44487;DHT22;30191;50.908;6.962;2022-08-21T00:00:46;20.80;99.90
44487;DHT22;30191;50.908;6.962;2022-08-21T00:03:13;20.70;99.90
44487;DHT22;30191;50.908;6.962;2022-08-21T00:05:46;20.70;99.90
44487;DHT22;30191;50.908;6.962;2022-08-21T00:08:12;20.70;99.90
44487;DHT22;30191;50.908;6.962;2022-08-21T00:10:42;20.70;99.90
44487;DHT22;30191;50.908;6.962;2022-08-21T00:13:08;20.80;99.90
44487;DHT22;30191;50.908;6.962;2022-08-21T00:15:36;20.80;99.90
44487;DHT22;30191;50.908;6.962;2022-08-21T00:18:03;20.70;99.90
44487;DHT22;30191;50.908;6.962;2022-08-21T00:20:29;20.60;99.90
44487;DHT22;30191;50.908;6.962;2022-08-21T00:22:55;20.60;99.90
44487;DHT22;30191;50.908;6.962;2022-08-21T00:25:21;20.60;99.90
44487;DHT22;30191;50.908;6.962;2022-08-21T00:27:47;20.40;99.90
44487;DHT22;30191;50.908;6.962;2022-08-21T00:30:15;20.50;99.90
44487;DHT22;30191;50.908;6.962;2022-08-21T00:32:43;20.50;99.90
44487;DHT22;30191;50.908;6.962;2022-08-21T00:35:13;20.50;99.90
44487;DHT22;30191;50.908;6.962;2022-08-21T00:37:40;20.20;99.90
44487;DHT22;30191;50.908;6.962;2022-08-21T00:40:08;20.20;99.90
44487;DHT22;30191;50.908;6.962;2022-08-21T00:42:35;20.20;99.90
44487;DHT22;30191;50.908;6.962;2022-08-21T00:45:02;20.10;99.90
44487;DHT22;30191;50.908;6.962;2022-08-21T00:47:28;20.10;99.90
44487;DHT22;30191;50.908;6.962;2022-08-21T00:49:54;20.30;99.90
44487;DHT22;30191;50.908;6.962;2022-08-21T00:52:23;20.10;99.90
44487;DHT22;30191;50.908;6.962;2022-08-21T00:54:50;20.10;99.90
44487;DHT22;30191;50.908;6.962;2022-08-21T00:57:24;20.00;99.90
44487;DHT22;30191;50.908;6.962;2022-08-21T00:59:54;20.00;99.90
44487;DHT22;30191;50.908;6.962;2022-08-21T01:02:21;20.00;99.90
44487;DHT22;30191;50.908;6.962;2022-08-21T01:04:47;19.90;99.90
44487;DHT22;30191;50.908;6.962;2022-08-21T01:07:13;20.00;99.90
44487;DHT22;30191;50.908;6.962;2022-08-21T01:09:39;19.90;99.90
44487;DHT22;30191;50.908;6.962;2022-08-21T01:12:06;20.00;99.90
44487;DHT22;30191;50.908;6.962;2022-08-21T01:14:32;20.00;99.90
44487;DHT22;30191;50.908;6.962;2022-08-21T01:17:01;20.00;99.90
44487;DHT22;30191;50.908;6.962;2022-08-21T01:19:28;19.90;99.90
44487;DHT22;30191;50.908;6.962;2022-08-21T01:21:55;19.90;99.90
44487;DHT22;30191;50.908;6.962;2022-08-21T01:24:21;19.80;99.90
44487;DHT22;30191;50.908;6.962;2022-08-21T01:26:49;19.90;99.90
44487;DHT22;30191;50.908;6.962;2022-08-21T01:29:36;20.00;99.90
44487;DHT22;30191;50.908;6.962;2022-08-21T01:32:06;19.90;99.90
44487;DHT22;30191;50.908;6.962;2022-08-21T01:34:34;20.00;99.90
44487;DHT22;30191;50.908;6.962;2022-08-21T01:37:01;20.00;99.90
44487;DHT22;30191;50.908;6.962;2022-08-21T01:39:28;19.80;99.90
44487;DHT22;30191;50.908;6.962;2022-08-21T01:41:54;19.70;99.90
44487;DHT22;30191;50.908;6.962;2022-08-21T01:44:23;19.60;99.90
44487;DHT22;30191;50.908;6.962;2022-08-21T01:46:50;19.50;99.90
44487;DHT22;30191;50.908;6.962;2022-08-21T01:49:16;19.60;99.90
44487;DHT22;30191;50.908;6.962;2022-08-21T01:51:42;19.60;99.90
44487;DHT22;30191;50.908;6.962;2022-08-21T01:54:08;19.50;99.90
44487;DHT22;30191;50.908;6.962;2022-08-21T01:56:43;19.40;99.90
44487;DHT22;30191;50.908;6.962;2022-08-21T01:59:10;19.40;99.90
44487;DHT22;30191;50.908;6.962;2022-08-21T02:01:37;19.30;99.90
44487;DHT22;30191;50.908;6.962;2022-08-21T02:04:06;19.40;99.90
44487;DHT22;30191;50.908;6.962;2022-08-21T02:06:31;19.30;99.90
44487;DHT22;30191;50.908;6.962;2022-08-21T02:08:57;19.30;99.90
44487;DHT22;30191;50.908;6.962;2022-08-21T02:11:23;19.30;99.90
44487;DHT22;30191;50.908;6.962;2022-08-21T02:13:49;19.30;99.90
44487;DHT22;30191;50.908;6.962;2022-08-21T02:16:15;19.40;99.90
44487;DHT22;30191;50.908;6.962;2022-08-21T02:18:41;19.30;99.90
44487;DHT22;30191;50.908;6.962;2022-08-21T02:21:07;19.30;99.90
44487;DHT22;30191;50.908;6.962;2022-08-21T02:23:33;19.20;99.90
44487;DHT22;30191;50.908;6.962;2022-08-21T02:26:00;19.10;99.90
44487;DHT22;30191;50.908;6.962;2022-08-21T02:28:26;19.10;99.90
44487;DHT22;30191;50.908;6.962;2022-08-21T02:30:53;19.30;99.90
44487;DHT22;30191;50.908;6.962;2022-08-21T02:33:19;19.20;99.90
44487;DHT22;30191;50.908;6.962;2022-08-21T02:35:46;19.10;99.90
44487;DHT22;30191;50.908;6.962;2022-08-21T02:38:18;19.00;99.90
44487;DHT22;30191;50.908;6.962;2022-08-21T02:40:47;19.10;99.90
44487;DHT22;30191;50.908;6.962;2022-08-21T02:43:14;19.10;99.90
44487;DHT22;30191;50.908;6.962;2022-08-21T02:45:41;19.10;99.90
44487;DHT22;30191;50.908;6.962;2022-08-21T02:48:09;19.00;99.90
44487;DHT22;30191;50.908;6.962;2022-08-21T02:50:38;19.10;99.90
44487;DHT22;30191;50.908;6.962;2022-08-21T02:53:05;19.10;99.90
44487;DHT22;30191;50.908;6.962;2022-08-21T02:55:33;19.10;99.90
44487;DHT22;30191;50.908;6.962;2022-08-21T02:57:59;19.00;99.90
44487;DHT22;30191;50.908;6.962;2022-08-21T03:00:28;18.90;99.90
44487;DHT22;30191;50.908;6.962;2022-08-21T03:02:55;19.00;99.90
44487;DHT22;30191;50.908;6.962;2022-08-21T03:05:22;19.00;99.90
44487;DHT22;30191;50.908;6.962;2022-08-21T03:07:49;19.00;99.90
44487;DHT22;30191;50.908;6.962;2022-08-21T03:10:15;19.10;99.90
44487;DHT22;30191;50.908;6.962;2022-08-21T03:12:41;19.00;99.90
44487;DHT22;30191;50.908;6.962;2022-08-21T03:15:11;18.90;99.90
44487;DHT22;30191;50.908;6.962;2022-08-21T03:17:37;19.00;99.90
44487;DHT22;30191;50.908;6.962;2022-08-21T03:20:07;19.00;99.90
44487;DHT22;30191;50.908;6.962;2022-08-21T03:22:34;19.00;99.90
44487;DHT22;30191;50.908;6.962;2022-08-21T03:25:00;19.00;99.90
44487;DHT22;30191;50.908;6.962;2022-08-21T03:27:27;18.90;99.90
44487;DHT22;30191;50.908;6.962;2022-08-21T03:29:54;19.00;99.90
44487;DHT22;30191;50.908;6.962;2022-08-21T03:32:20;19.00;99.90
44487;DHT22;30191;50.908;6.962;2022-08-21T03:34:47;18.90;99.90
44487;DHT22;30191;50.908;6.962;2022-08-21T03:37:13;18.90;99.90
44487;DHT22;30191;50.908;6.962;2022-08-21T03:39:39;18.70;99.90
44487;DHT22;30191;50.908;6.962;2022-08-21T03:42:07;18.80;99.90
44487;DHT22;30191;50.908;6.962;2022-08-21T03:44:34;18.70;99.90
44487;DHT22;30191;50.908;6.962;2022-08-21T03:47:00;18.70;99.90
44487;DHT22;30191;50.908;6.962;2022-08-21T03:49:26;18.80;99.90
44487;DHT22;30191;50.908;6.962;2022-08-21T03:51:52;18.90;99.90
44487;DHT22;30191;50.908;6.962;2022-08-21T03:54:18;18.80;99.90
44487;DHT22;30191;50.908;6.962;2022-08-21T03:56:44;18.80;99.90
44487;DHT22;30191;50.908;6.962;2022-08-21T03:59:10;18.90;99.90
44487;DHT22;30191;50.908;6.962;2022-08-21T04:01:36;18.80;99.90
44487;DHT22;30191;50.908;6.962;2022-08-21T04:04:03;18.70;99.90
44487;DHT22;30191;50.908;6.962;2022-08-21T04:06:29;18.70;99.90
44487;DHT22;30191;50.908;6.962;2022-08-21T04:08:55;18.70;99.90
44487;DHT22;30191;50.908;6.962;2022-08-21T04:11:20;18.60;99.90
44487;DHT22;30191;50.908;6.962;2022-08-21T04:13:46;18.70;99.90
44487;DHT22;30191;50.908;6.962;2022-08-21T04:16:13;18.60;99.90
44487;DHT22;30191;50.908;6.962;2022-08-21T04:18:39;18.70;99.90
44487;DHT22;30191;50.908;6.962;2022-08-21T04:21:05;18.60;99.90
44487;DHT22;30191;50.908;6.962;2022-08-21T04:23:32;18.50;99.90
44487;DHT22;30191;50.908;6.962;2022-08-21T04:25:58;18.60;99.90
44487;DHT22;30191;50.908;6.962;2022-08-21T04:28:25;18.60;99.90
44487;DHT22;30191;50.908;6.962;2022-08-21T04:30:52;18.50;99.90
44487;DHT22;30191;50.908;6.962;2022-08-21T04:33:19;18.30;99.90
44487;DHT22;30191;50.908;6.962;2022-08-21T04:35:45;18.30;99.90
44487;DHT22;30191;50.908;6.962;2022-08-21T04:38:10;18.30;99.90
44487;DHT22;30191;50.908;6.962;2022-08-21T04:40:37;18.30;99.90
44487;DHT22;30191;50.908;6.962;2022-08-21T04:43:06;18.20;99.90
44487;DHT22;30191;50.908;6.962;2022-08-21T04:45:36;18.30;99.90
44487;DHT22;30191;50.908;6.962;2022-08-21T04:48:05;18.30;99.90
44487;DHT22;30191;50.908;6.962;2022-08-21T04:56:22;18.10;99.90
44487;DHT22;30191;50.908;6.962;2022-08-21T04:58:51;18.00;99.90
44487;DHT22;30191;50.908;6.962;2022-08-21T05:01:21;18.10;99.90
44487;DHT22;30191;50.908;6.962;2022-08-21T05:03:48;17.90;99.90
44487;DHT22;30191;50.908;6.962;2022-08-21T05:06:16;17.90;99.90
44487;DHT22;30191;50.908;6.962;2022-08-21T05:08:45;17.90;99.90
44487;DHT22;30191;50.908;6.962;2022-08-21T05:11:11;17.90;99.90
44487;DHT22;30191;50.908;6.962;2022-08-21T05:13:36;18.00;99.90
44487;DHT22;30191;50.908;6.962;2022-08-21T05:16:02;18.10;99.90
44487;DHT22;30191;50.908;6.962;2022-08-21T05:18:28;18.20;99.90
44487;DHT22;30191;50.908;6.962;2022-08-21T05:20:54;18.20;99.90
44487;DHT22;30191;50.908;6.962;2022-08-21T05:23:20;18.20;99.90
44487;DHT22;30191;50.908;6.962;2022-08-21T05:25:45;18.40;99.90
44487;DHT22;30191;50.908;6.962;2022-08-21T05:28:11;18.30;99.90
44487;DHT22;30191;50.908;6.962;2022-08-21T05:30:38;18.30;99.90
44487;DHT22;30191;50.908;6.962;2022-08-21T05:33:05;18.30;99.90
44487;DHT22;30191;50.908;6.962;2022-08-21T05:35:32;18.30;99.90
44487;DHT22;30191;50.908;6.962;2022-08-21T05:37:59;18.40;99.90
44487;DHT22;30191;50.908;6.962;2022-08-21T05:40:25;18.40;99.90
44487;DHT22;30191;50.908;6.962;2022-08-21T05:42:53;18.40;99.90
44487;DHT22;30191;50.908;6.962;2022-08-21T05:45:19;18.40;99.90
44487;DHT22;30191;50.908;6.962;2022-08-21T05:47:45;18.40;99.90
44487;DHT22;30191;50.908;6.962;2022-08-21T05:50:10;18.40;99.90
44487;DHT22;30191;50.908;6.962;2022-08-21T05:52:36;18.40;99.90
44487;DHT22;30191;50.908;6.962;2022-08-21T05:55:03;18.30;99.90
44487;DHT22;30191;50.908;6.962;2022-08-21T05:57:28;18.30;99.90
44487;DHT22;30191;50.908;6.962;2022-08-21T05:59:54;18.40;99.90
44487;DHT22;30191;50.908;6.962;2022-08-21T06:02:21;18.40;99.90
44487;DHT22;30191;50.908;6.962;2022-08-21T06:04:47;18.40;99.90
44487;DHT22;30191;50.908;6.962;2022-08-21T06:07:13;18.40;99.90
44487;DHT22;30191;50.908;6.962;2022-08-21T06:09:40;18.40;99.90
44487;DHT22;30191;50.908;6.962;2022-08-21T06:12:08;18.50;99.90
44487;DHT22;30191;50.908;6.962;2022-08-21T06:14:34;18.50;99.90
44487;DHT22;30191;50.908;6.962;2022-08-21T06:17:05;18.50;99.90
44487;DHT22;30191;50.908;6.962;2022-08-21T06:19:32;18.40;99.90
44487;DHT22;30191;50.908;6.962;2022-08-21T06:21:58;18.50;99.90
44487;DHT22;30191;50.908;6.962;2022-08-21T06:24:25;18.60;99.90
44487;DHT22;30191;50.908;6.962;2022-08-21T06:26:51;18.70;99.90
44487;DHT22;30191;50.908;6.962;2022-08-21T06:29:17;18.80;99.90
44487;DHT22;30191;50.908;6.962;2022-08-21T06:31:43;18.90;99.90
44487;DHT22;30191;50.908;6.962;2022-08-21T06:34:10;18.90;99.90
44487;DHT22;30191;50.908;6.962;2022-08-21T06:36:36;19.00;99.90
44487;DHT22;30191;50.908;6.962;2022-08-21T06:39:02;18.90;99.90
44487;DHT22;30191;50.908;6.962;2022-08-21T06:41:27;18.90;99.90
44487;DHT22;30191;50.908;6.962;2022-08-21T06:43:54;18.90;99.90
44487;DHT22;30191;50.908;6.962;2022-08-21T06:46:21;18.90;99.90
44487;DHT22;30191;50.908;6.962;2022-08-21T06:48:46;18.90;99.90
44487;DHT22;30191;50.908;6.962;2022-08-21T06:51:12;19.00;99.90
44487;DHT22;30191;50.908;6.962;2022-08-21T06:53:38;19.00;99.90
44487;DHT22;30191;50.908;6.962;2022-08-21T06:56:04;19.10;99.90
44487;DHT22;30191;50.908;6.962;2022-08-21T06:58:29;19.00;99.90
44487;DHT22;30191;50.908;6.962;2022-08-21T07:00:56;19.10;99.90
44487;DHT22;30191;50.908;6.962;2022-08-21T07:03:28;19.10;99.90
44487;DHT22;30191;50.908;6.962;2022-08-21T07:05:55;19.00;99.90
44487;DHT22;30191;50.908;6.962;2022-08-21T07:08:24;19.10;99.90
44487;DHT22;30191;50.908;6.962;2022-08-21T07:10:51;19.10;99.90
44487;DHT22;30191;50.908;6.962;2022-08-21T07:13:17;19.10;99.90
44487;DHT22;30191;50.908;6.962;2022-08-21T07:15:43;19.20;99.90
44487;DHT22;30191;50.908;6.962;2022-08-21T07:18:10;19.30;99.90
44487;DHT22;30191;50.908;6.962;2022-08-21T07:20:37;19.40;99.90
44487;DHT22;30191;50.908;6.962;2022-08-21T07:23:07;19.40;99.90
44487;DHT22;30191;50.908;6.962;2022-08-21T07:25:34;19.50;99.90
44487;DHT22;30191;50.908;6.962;2022-08-21T07:27:59;19.60;99.90
44487;DHT22;30191;50.908;6.962;2022-08-21T07:30:25;19.70;99.90
44487;DHT22;30191;50.908;6.962;2022-08-21T07:32:51;19.70;99.90
44487;DHT22;30191;50.908;6.962;2022-08-21T07:35:19;19.70;99.90
44487;DHT22;30191;50.908;6.962;2022-08-21T07:37:45;19.80;99.90
44487;DHT22;30191;50.908;6.962;2022-08-21T07:40:11;19.70;99.90
44487;DHT22;30191;50.908;6.962;2022-08-21T07:42:45;19.80;99.90
44487;DHT22;30191;50.908;6.962;2022-08-21T07:45:13;19.80;99.90
44487;DHT22;30191;50.908;6.962;2022-08-21T07:47:39;19.90;99.90
44487;DHT22;30191;50.908;6.962;2022-08-21T07:50:06;19.80;99.90
44487;DHT22;30191;50.908;6.962;2022-08-21T07:52:32;19.80;99.90
44487;DHT22;30191;50.908;6.962;2022-08-21T07:54:59;19.90;99.90
44487;DHT22;30191;50.908;6.962;2022-08-21T07:57:25;19.90;99.90
44487;DHT22;30191;50.908;6.962;2022-08-21T07:59:50;20.00;99.90
44487;DHT22;30191;50.908;6.962;2022-08-21T08:02:27;20.00;99.90
44487;DHT22;30191;50.908;6.962;2022-08-21T08:04:53;20.10;99.90
44487;DHT22;30191;50.908;6.962;2022-08-21T08:07:18;20.20;99.90
44487;DHT22;30191;50.908;6.962;2022-08-21T08:09:45;20.20;99.90
44487;DHT22;30191;50.908;6.962;2022-08-21T08:12:11;20.30;99.90
44487;DHT22;30191;50.908;6.962;2022-08-21T08:14:36;20.20;99.90
44487;DHT22;30191;50.908;6.962;2022-08-21T08:17:02;20.30;99.90
44487;DHT22;30191;50.908;6.962;2022-08-21T08:19:28;20.30;99.90
44487;DHT22;30191;50.908;6.962;2022-08-21T08:21:54;20.40;99.90
44487;DHT22;30191;50.908;6.962;2022-08-21T08:24:20;20.40;99.90
44487;DHT22;30191;50.908;6.962;2022-08-21T08:26:46;20.50;99.90
44487;DHT22;30191;50.908;6.962;2022-08-21T08:29:12;20.50;99.90
44487;DHT22;30191;50.908;6.962;2022-08-21T08:31:38;20.60;99.90
44487;DHT22;30191;50.908;6.962;2022-08-21T08:34:04;20.60;99.90
44487;DHT22;30191;50.908;6.962;2022-08-21T08:36:36;20.70;99.90
44487;DHT22;30191;50.908;6.962;2022-08-21T08:39:04;20.70;99.90
44487;DHT22;30191;50.908;6.962;2022-08-21T08:41:31;20.70;99.90
44487;DHT22;30191;50.908;6.962;2022-08-21T08:44:04;20.70;99.90
44487;DHT22;30191;50.908;6.962;2022-08-21T08:46:45;20.80;99.90
44487;DHT22;30191;50.908;6.962;2022-08-21T08:52:14;21.00;99.90
44487;DHT22;30191;50.908;6.962;2022-08-21T08:54:47;21.10;99.90
44487;DHT22;30191;50.908;6.962;2022-08-21T08:57:19;21.20;99.90
44487;DHT22;30191;50.908;6.962;2022-08-21T08:59:51;21.30;99.90
44487;DHT22;30191;50.908;6.962;2022-08-21T09:02:18;21.30;99.90
44487;DHT22;30191;50.908;6.962;2022-08-21T09:04:47;21.40;99.90
44487;DHT22;30191;50.908;6.962;2022-08-21T09:10:19;21.50;99.90
44487;DHT22;30191;50.908;6.962;2022-08-21T09:16:09;21.50;99.90
44487;DHT22;30191;50.908;6.962;2022-08-21T09:19:23;21.50;99.90
44487;DHT22;30191;50.908;6.962;2022-08-21T09:21:49;21.50;99.90
44487;DHT22;30191;50.908;6.962;2022-08-21T09:27:10;21.60;99.90
44487;DHT22;30191;50.908;6.962;2022-08-21T09:29:45;21.70;99.90
44487;DHT22;30191;50.908;6.962;2022-08-21T09:32:24;21.60;99.90
44487;DHT22;30191;50.908;6.962;2022-08-21T09:35:00;21.60;99.90
44487;DHT22;30191;50.908;6.962;2022-08-21T09:37:29;21.70;99.90
44487;DHT22;30191;50.908;6.962;2022-08-21T09:39:56;21.70;99.90
44487;DHT22;30191;50.908;6.962;2022-08-21T09:42:28;21.70;99.90
44487;DHT22;30191;50.908;6.962;2022-08-21T09:45:23;21.80;99.90
44487;DHT22;30191;50.908;6.962;2022-08-21T09:47:49;21.90;99.90
44487;DHT22;30191;50.908;6.962;2022-08-21T09:50:17;22.00;99.90
44487;DHT22;30191;50.908;6.962;2022-08-21T09:52:55;22.00;99.90
44487;DHT22;30191;50.908;6.962;2022-08-21T09:58:17;22.00;99.90
44487;DHT22;30191;50.908;6.962;2022-08-21T10:00:43;22.10;99.90
44487;DHT22;30191;50.908;6.962;2022-08-21T10:03:19;22.10;99.90
44487;DHT22;30191;50.908;6.962;2022-08-21T10:08:21;22.20;99.90
44487;DHT22;30191;50.908;6.962;2022-08-21T10:10:53;22.30;99.90
44487;DHT22;30191;50.908;6.962;2022-08-21T10:13:47;22.40;99.90
44487;DHT22;30191;50.908;6.962;2022-08-21T10:16:45;22.40;99.90
44487;DHT22;30191;50.908;6.962;2022-08-21T10:19:47;22.40;99.90
44487;DHT22;30191;50.908;6.962;2022-08-21T10:25:19;22.40;99.90
44487;DHT22;30191;50.908;6.962;2022-08-21T10:33:54;22.40;99.90
44487;DHT22;30191;50.908;6.962;2022-08-21T10:44:31;22.80;99.90
44487;DHT22;30191;50.908;6.962;2022-08-21T10:47:34;22.80;99.90
44487;DHT22;30191;50.908;6.962;2022-08-21T10:55:22;22.90;99.90
44487;DHT22;30191;50.908;6.962;2022-08-21T11:00:23;23.00;99.90
44487;DHT22;30191;50.908;6.962;2022-08-21T11:05:46;23.00;99.90
44487;DHT22;30191;50.908;6.962;2022-08-21T11:08:21;23.00;99.90
44487;DHT22;30191;50.908;6.962;2022-08-21T11:11:12;23.10;99.90
44487;DHT22;30191;50.908;6.962;2022-08-21T11:13:55;23.20;99.90
44487;DHT22;30191;50.908;6.962;2022-08-21T11:16:23;23.30;99.90
44487;DHT22;30191;50.908;6.962;2022-08-21T11:18:57;23.40;99.60
44487;DHT22;30191;50.908;6.962;2022-08-21T11:21:42;23.50;99.30
44487;DHT22;30191;50.908;6.962;2022-08-21T11:29:49;23.70;98.80
44487;DHT22;30191;50.908;6.962;2022-08-21T11:38:01;23.80;98.70
44487;DHT22;30191;50.908;6.962;2022-08-21T11:45:52;24.10;98.20
44487;DHT22;30191;50.908;6.962;2022-08-21T11:50:45;24.30;97.20
44487;DHT22;30191;50.908;6.962;2022-08-21T11:56:00;24.30;96.40
44487;DHT22;30191;50.908;6.962;2022-08-21T12:00:56;24.20;96.30
44487;DHT22;30191;50.908;6.962;2022-08-21T12:03:31;24.20;96.70
44487;DHT22;30191;50.908;6.962;2022-08-21T12:06:01;24.30;96.90
44487;DHT22;30191;50.908;6.962;2022-08-21T12:16:37;24.80;96.50
44487;DHT22;30191;50.908;6.962;2022-08-21T12:19:06;24.80;96.40
44487;DHT22;30191;50.908;6.962;2022-08-21T12:21:32;25.00;96.90
44487;DHT22;30191;50.908;6.962;2022-08-21T12:24:15;25.20;96.50
44487;DHT22;30191;50.908;6.962;2022-08-21T12:26:52;25.40;96.10
44487;DHT22;30191;50.908;6.962;2022-08-21T12:29:25;25.50;95.40
44487;DHT22;30191;50.908;6.962;2022-08-21T12:34:32;25.70;94.60
44487;DHT22;30191;50.908;6.962;2022-08-21T12:37:38;25.70;94.70
44487;DHT22;30191;50.908;6.962;2022-08-21T12:40:17;26.00;94.90
44487;DHT22;30191;50.908;6.962;2022-08-21T12:42:48;26.30;94.60
44487;DHT22;30191;50.908;6.962;2022-08-21T12:47:51;26.40;93.80
44487;DHT22;30191;50.908;6.962;2022-08-21T12:50:46;26.50;93.90
44487;DHT22;30191;50.908;6.962;2022-08-21T12:53:12;26.60;93.60
44487;DHT22;30191;50.908;6.962;2022-08-21T12:55:42;26.50;93.50
44487;DHT22;30191;50.908;6.962;2022-08-21T12:58:23;26.30;93.30
44487;DHT22;30191;50.908;6.962;2022-08-21T13:03:30;26.60;93.40
44487;DHT22;30191;50.908;6.962;2022-08-21T13:05:57;26.90;92.90
44487;DHT22;30191;50.908;6.962;2022-08-21T13:08:25;27.10;92.90
44487;DHT22;30191;50.908;6.962;2022-08-21T13:11:00;27.50;93.20
44487;DHT22;30191;50.908;6.962;2022-08-21T13:13:28;28.00;91.80
44487;DHT22;30191;50.908;6.962;2022-08-21T13:16:04;28.30;91.20
44487;DHT22;30191;50.908;6.962;2022-08-21T13:18:33;28.80;90.80
44487;DHT22;30191;50.908;6.962;2022-08-21T13:21:16;29.30;90.10
44487;DHT22;30191;50.908;6.962;2022-08-21T13:23:42;29.90;88.80
44487;DHT22;30191;50.908;6.962;2022-08-21T13:26:15;31.10;87.70
44487;DHT22;30191;50.908;6.962;2022-08-21T13:28:42;32.80;82.90
44487;DHT22;30191;50.908;6.962;2022-08-21T13:31:10;34.50;78.30
44487;DHT22;30191;50.908;6.962;2022-08-21T13:33:37;35.50;73.70
44487;DHT22;30191;50.908;6.962;2022-08-21T13:38:35;37.80;67.10
44487;DHT22;30191;50.908;6.962;2022-08-21T13:44:12;39.90;62.10
44487;DHT22;30191;50.908;6.962;2022-08-21T13:46:39;40.70;59.00
44487;DHT22;30191;50.908;6.962;2022-08-21T13:49:05;40.90;58.00
44487;DHT22;30191;50.908;6.962;2022-08-21T13:51:32;41.00;57.10
44487;DHT22;30191;50.908;6.962;2022-08-21T13:53:59;40.80;56.90
44487;DHT22;30191;50.908;6.962;2022-08-21T13:56:26;40.50;56.40
44487;DHT22;30191;50.908;6.962;2022-08-21T13:58:53;40.00;56.10
44487;DHT22;30191;50.908;6.962;2022-08-21T14:01:28;38.60;57.10
44487;DHT22;30191;50.908;6.962;2022-08-21T14:03:59;37.70;57.90
44487;DHT22;30191;50.908;6.962;2022-08-21T14:06:32;37.70;57.90
44487;DHT22;30191;50.908;6.962;2022-08-21T14:09:42;37.40;57.60
44487;DHT22;30191;50.908;6.962;2022-08-21T14:11:48;36.10;58.30
44487;DHT22;30191;50.908;6.962;2022-08-21T14:14:32;34.70;59.40
44487;DHT22;30191;50.908;6.962;2022-08-21T14:17:04;34.30;60.50
44487;DHT22;30191;50.908;6.962;2022-08-21T14:19:45;35.00;60.40
44487;DHT22;30191;50.908;6.962;2022-08-21T14:22:43;35.70;59.60
44487;DHT22;30191;50.908;6.962;2022-08-21T14:30:44;33.20;61.20
44487;DHT22;30191;50.908;6.962;2022-08-21T14:33:13;32.40;62.30
44487;DHT22;30191;50.908;6.962;2022-08-21T14:35:40;31.50;63.20
44487;DHT22;30191;50.908;6.962;2022-08-21T14:38:20;30.50;64.40
44487;DHT22;30191;50.908;6.962;2022-08-21T14:40:47;29.60;66.00
44487;DHT22;30191;50.908;6.962;2022-08-21T14:43:13;29.40;66.60
44487;DHT22;30191;50.908;6.962;2022-08-21T14:45:39;28.90;67.30
44487;DHT22;30191;50.908;6.962;2022-08-21T14:48:06;28.60;67.60
44487;DHT22;30191;50.908;6.962;2022-08-21T14:50:33;28.30;68.20
44487;DHT22;30191;50.908;6.962;2022-08-21T14:52:58;28.20;69.00
44487;DHT22;30191;50.908;6.962;2022-08-21T14:55:25;28.30;69.30
44487;DHT22;30191;50.908;6.962;2022-08-21T14:57:55;28.20;68.60
44487;DHT22;30191;50.908;6.962;2022-08-21T15:00:23;28.10;69.40
44487;DHT22;30191;50.908;6.962;2022-08-21T15:02:50;27.90;69.60
44487;DHT22;30191;50.908;6.962;2022-08-21T15:05:16;27.50;70.00
44487;DHT22;30191;50.908;6.962;2022-08-21T15:07:42;27.20;70.50
44487;DHT22;30191;50.908;6.962;2022-08-21T15:10:08;27.00;71.10
44487;DHT22;30191;50.908;6.962;2022-08-21T15:12:35;26.80;71.80
44487;DHT22;30191;50.908;6.962;2022-08-21T15:15:01;26.60;72.60
44487;DHT22;30191;50.908;6.962;2022-08-21T15:17:27;26.50;72.70
44487;DHT22;30191;50.908;6.962;2022-08-21T15:19:52;26.50;73.00
44487;DHT22;30191;50.908;6.962;2022-08-21T15:22:18;26.40;73.00
44487;DHT22;30191;50.908;6.962;2022-08-21T15:24:44;26.40;73.60
44487;DHT22;30191;50.908;6.962;2022-08-21T15:27:10;26.30;74.00
44487;DHT22;30191;50.908;6.962;2022-08-21T15:29:37;26.20;74.40
44487;DHT22;30191;50.908;6.962;2022-08-21T15:34:41;26.00;75.80
44487;DHT22;30191;50.908;6.962;2022-08-21T15:37:07;26.00;76.40
44487;DHT22;30191;50.908;6.962;2022-08-21T15:39:36;26.00;77.10
44487;DHT22;30191;50.908;6.962;2022-08-21T15:42:02;26.10;77.30
44487;DHT22;30191;50.908;6.962;2022-08-21T15:44:28;26.20;77.30
44487;DHT22;30191;50.908;6.962;2022-08-21T15:46:55;26.30;76.90
44487;DHT22;30191;50.908;6.962;2022-08-21T15:49:21;26.50;77.10
44487;DHT22;30191;50.908;6.962;2022-08-21T15:51:46;26.70;76.50
44487;DHT22;30191;50.908;6.962;2022-08-21T15:54:12;26.90;76.40
44487;DHT22;30191;50.908;6.962;2022-08-21T15:56:39;27.10;75.80
44487;DHT22;30191;50.908;6.962;2022-08-21T15:59:14;27.10;75.70
44487;DHT22;30191;50.908;6.962;2022-08-21T16:01:41;27.00;76.40
44487;DHT22;30191;50.908;6.962;2022-08-21T16:04:07;27.00;76.60
44487;DHT22;30191;50.908;6.962;2022-08-21T16:06:33;26.80;76.30
44487;DHT22;30191;50.908;6.962;2022-08-21T16:08:59;26.70;76.70
44487;DHT22;30191;50.908;6.962;2022-08-21T16:11:26;26.70;76.80
44487;DHT22;30191;50.908;6.962;2022-08-21T16:13:52;26.70;77.40
44487;DHT22;30191;50.908;6.962;2022-08-21T16:16:20;26.70;77.10
44487;DHT22;30191;50.908;6.962;2022-08-21T16:18:47;26.70;77.40
44487;DHT22;30191;50.908;6.962;2022-08-21T16:21:14;26.60;77.20
44487;DHT22;30191;50.908;6.962;2022-08-21T16:23:40;26.50;77.60
44487;DHT22;30191;50.908;6.962;2022-08-21T16:26:07;26.50;77.80
44487;DHT22;30191;50.908;6.962;2022-08-21T16:28:35;26.60;77.80
44487;DHT22;30191;50.908;6.962;2022-08-21T16:31:01;26.80;77.00
44487;DHT22;30191;50.908;6.962;2022-08-21T16:33:56;27.10;76.70
44487;DHT22;30191;50.908;6.962;2022-08-21T16:36:22;27.40;76.70
44487;DHT22;30191;50.908;6.962;2022-08-21T16:38:51;27.70;76.00
44487;DHT22;30191;50.908;6.962;2022-08-21T16:41:19;27.80;74.50
44487;DHT22;30191;50.908;6.962;2022-08-21T16:43:46;27.80;74.60
44487;DHT22;30191;50.908;6.962;2022-08-21T16:46:13;27.90;74.50
44487;DHT22;30191;50.908;6.962;2022-08-21T16:48:41;27.90;73.20
44487;DHT22;30191;50.908;6.962;2022-08-21T16:51:10;27.90;73.00
44487;DHT22;30191;50.908;6.962;2022-08-21T16:53:36;27.70;73.10
44487;DHT22;30191;50.908;6.962;2022-08-21T16:56:03;27.40;73.10
44487;DHT22;30191;50.908;6.962;2022-08-21T16:58:31;27.30;73.00
44487;DHT22;30191;50.908;6.962;2022-08-21T17:00:59;27.00;73.90
44487;DHT22;30191;50.908;6.962;2022-08-21T17:03:39;26.80;74.50
44487;DHT22;30191;50.908;6.962;2022-08-21T17:06:07;26.50;75.60
44487;DHT22;30191;50.908;6.962;2022-08-21T17:08:33;26.40;75.80
44487;DHT22;30191;50.908;6.962;2022-08-21T17:11:00;26.30;76.50
44487;DHT22;30191;50.908;6.962;2022-08-21T17:13:26;26.20;77.10
44487;DHT22;30191;50.908;6.962;2022-08-21T17:15:52;26.10;77.60
44487;DHT22;30191;50.908;6.962;2022-08-21T17:18:20;26.10;78.00
44487;DHT22;30191;50.908;6.962;2022-08-21T17:20:47;26.00;78.60
44487;DHT22;30191;50.908;6.962;2022-08-21T17:23:14;26.10;79.10
44487;DHT22;30191;50.908;6.962;2022-08-21T17:25:42;26.10;79.40